Time;durP1;ratioP1;P1;durP2;ratioP2;P2;SDS_P1;SDS_P2;PMS_P1;PMS_P2;Temp;Humidity;BMP_temperature;BMP_pressure;BME280_temperature;BME280_humidity;BME280_pressure;Samples;Min_cycle;Max_cycle;Signal;HPM_P1;HPM_P2
2024/01/23 00:00:25;;;;;;;19.10;3.58;;;;;;;6.64;100.00;99443.44;4988366;28;20109;-75
2024/01/23 00:02:50;;;;;;;34.63;6.57;;;;;;;6.62;100.00;99457.88;4988608;28;20028;-74
2024/01/23 00:05:16;;;;;;;42.13;5.20;;;;;;;6.49;100.00;99434.53;5003478;28;20289;-74
2024/01/23 00:07:41;;;;;;;21.93;3.63;;;;;;;6.44;100.00;99418.28;4987127;28;20088;-74
2024/01/23 00:10:07;;;;;;;30.23;4.80;;;;;;;6.58;100.00;99459.19;5001993;28;20052;-74
2024/01/23 00:12:32;;;;;;;16.30;3.22;;;;;;;6.58;100.00;99461.84;5022931;28;20026;-74
2024/01/23 00:14:58;;;;;;;25.07;4.40;;;;;;;6.51;100.00;99469.66;5022826;28;20420;-74
2024/01/23 00:17:24;;;;;;;10.07;3.42;;;;;;;6.50;100.00;99475.94;5004457;28;20088;-74
2024/01/23 00:19:50;;;;;;;22.73;4.40;;;;;;;6.46;100.00;99503.78;5004430;28;20076;-74
2024/01/23 00:22:15;;;;;;;22.48;3.67;;;;;;;6.58;100.00;99506.91;5011425;28;20425;-74
2024/01/23 00:24:40;;;;;;;22.40;4.40;;;;;;;6.57;100.00;99508.75;4992177;28;20105;-74
2024/01/23 00:27:06;;;;;;;29.67;5.00;;;;;;;6.49;100.00;99461.03;5014997;28;20100;-75
2024/01/23 00:29:33;;;;;;;20.93;3.50;;;;;;;6.56;100.00;99496.50;5005731;28;20029;-74
2024/01/23 00:31:58;;;;;;;26.40;4.28;;;;;;;6.53;100.00;99487.06;5001730;28;20045;-75
2024/01/23 00:34:23;;;;;;;21.73;3.73;;;;;;;6.68;100.00;99521.69;5019461;28;20037;-74
2024/01/23 00:36:49;;;;;;;33.57;4.60;;;;;;;6.60;100.00;99471.28;5007251;28;20072;-74
2024/01/23 00:39:14;;;;;;;19.37;3.47;;;;;;;6.51;100.00;99457.22;5007380;28;20034;-75
2024/01/23 00:41:39;;;;;;;25.40;5.90;;;;;;;6.55;100.00;99518.69;5022333;28;20069;-74
2024/01/23 00:44:05;;;;;;;16.93;4.10;;;;;;;6.62;100.00;99532.94;5022873;28;20030;-74
2024/01/23 00:46:30;;;;;;;21.37;3.63;;;;;;;6.56;100.00;99501.81;5005458;28;20335;-74
2024/01/23 00:48:55;;;;;;;20.97;4.67;;;;;;;6.52;100.00;99511.91;4999014;28;20365;-74
2024/01/23 00:51:21;;;;;;;26.10;3.73;;;;;;;6.52;100.00;99492.53;5006776;28;20041;-74
2024/01/23 00:53:46;;;;;;;23.33;4.43;;;;;;;6.61;100.00;99496.00;4994006;28;20473;-74
2024/01/23 00:56:12;;;;;;;19.03;4.47;;;;;;;6.43;100.00;99443.16;4986198;28;20572;-75
2024/01/23 00:58:37;;;;;;;21.30;3.60;;;;;;;6.52;100.00;99460.69;5005908;28;20045;-74
2024/01/23 01:01:02;;;;;;;26.30;5.47;;;;;;;6.50;100.00;99474.13;5000131;28;20485;-74
2024/01/23 01:03:28;;;;;;;20.48;4.53;;;;;;;6.46;100.00;99479.91;5009580;28;20034;-75
2024/01/23 01:05:53;;;;;;;21.60;4.03;;;;;;;6.56;100.00;99499.16;5022135;28;20018;-74
2024/01/23 01:08:19;;;;;;;26.87;4.60;;;;;;;6.57;100.00;99468.97;5021834;28;20038;-74
2024/01/23 01:10:45;;;;;;;20.67;3.80;;;;;;;6.65;100.00;99478.72;5022099;28;20485;-74
2024/01/23 01:13:10;;;;;;;15.30;4.28;;;;;;;6.43;100.00;99396.25;5021650;28;20484;-74
2024/01/23 01:15:38;;;;;;;17.20;5.67;;;;;;;6.53;100.00;99435.81;5021838;28;20041;-74
2024/01/23 01:18:04;;;;;;;16.90;3.97;;;;;;;6.46;100.00;99410.97;4991369;28;20543;-74
2024/01/23 01:20:29;;;;;;;19.70;4.30;;;;;;;6.41;100.00;99408.00;5018962;28;20456;-74
2024/01/23 01:22:54;;;;;;;22.63;3.57;;;;;;;6.48;100.00;99422.25;5006526;28;20026;-74
2024/01/23 01:25:20;;;;;;;21.13;4.30;;;;;;;6.37;100.00;99390.78;5006303;28;20280;-74
2024/01/23 01:27:45;;;;;;;16.13;3.40;;;;;;;6.50;100.00;99410.47;5015198;28;20030;-74
2024/01/23 01:30:11;;;;;;;16.40;2.60;;;;;;;6.43;100.00;99400.72;4981300;28;20030;-74
2024/01/23 01:32:36;;;;;;;16.27;3.72;;;;;;;6.38;100.00;99401.22;5002612;28;20293;-74
2024/01/23 01:35:02;;;;;;;13.43;3.27;;;;;;;6.33;100.00;99347.91;5017930;28;20116;-74
2024/01/23 01:37:28;;;;;;;15.27;3.67;;;;;;;6.44;100.00;99375.84;5014061;28;20069;-74
2024/01/23 01:39:53;;;;;;;13.37;3.23;;;;;;;6.38;100.00;99352.69;5012320;28;20061;-74
2024/01/23 01:42:18;;;;;;;21.57;3.10;;;;;;;6.33;100.00;99387.66;4994453;28;20650;-74
2024/01/23 01:44:44;;;;;;;31.03;5.40;;;;;;;6.28;100.00;99400.59;5000580;28;20141;-74
2024/01/23 01:47:10;;;;;;;12.88;3.78;;;;;;;6.31;100.00;99429.41;5019245;28;20026;-74
2024/01/23 01:49:35;;;;;;;17.80;3.35;;;;;;;6.25;100.00;99408.84;4998200;28;20062;-74
2024/01/23 01:52:02;;;;;;;21.50;3.53;;;;;;;6.16;100.00;99410.72;5021640;28;20087;-74
2024/01/23 01:54:29;;;;;;;21.52;3.05;;;;;;;6.19;100.00;99468.66;5005794;28;20038;-74
2024/01/23 01:56:55;;;;;;;23.10;3.75;;;;;;;6.16;100.00;99490.22;5006137;28;20033;-74
2024/01/23 01:59:20;;;;;;;20.80;3.47;;;;;;;6.18;100.00;99512.06;5021357;28;20034;-74
2024/01/23 02:01:46;;;;;;;21.55;3.72;;;;;;;6.28;100.00;99544.53;4990015;28;20664;-74
2024/01/23 02:04:11;;;;;;;26.20;4.22;;;;;;;6.21;100.00;99538.25;5021466;28;20267;-74
2024/01/23 02:06:37;;;;;;;27.88;5.53;;;;;;;6.18;100.00;99556.28;5003080;28;20053;-75
2024/01/23 02:09:03;;;;;;;22.42;3.30;;;;;;;6.15;100.00;99573.34;4999908;28;20030;-74
2024/01/23 02:11:28;;;;;;;30.45;4.90;;;;;;;6.15;100.00;99597.19;5020814;28;20411;-74
2024/01/23 02:13:54;;;;;;;27.88;4.80;;;;;;;6.10;100.00;99596.84;5016704;28;20034;-74
2024/01/23 02:16:20;;;;;;;30.70;4.87;;;;;;;6.17;100.00;99613.75;4994439;28;20026;-74
2024/01/23 02:18:46;;;;;;;;;;;;;;;6.21;100.00;99620.41;5005770;28;20038;-74
2024/01/23 02:21:12;;;;;;;23.63;5.20;;;;;;;6.08;100.00;99626.16;5003574;28;19917;-74
2024/01/23 02:23:37;;;;;;;27.05;5.20;;;;;;;6.04;100.00;99629.28;5004171;28;20097;-74
2024/01/23 02:26:03;;;;;;;33.53;6.60;;;;;;;6.03;100.00;99639.06;5019592;28;20141;-74
2024/01/23 02:28:28;;;;;;;26.13;4.20;;;;;;;6.04;100.00;99666.38;5011438;28;20038;-74
2024/01/23 02:30:54;;;;;;;32.97;4.93;;;;;;;5.97;100.00;99681.25;5012524;28;20022;-74
2024/01/23 02:33:19;;;;;;;32.05;7.05;;;;;;;6.04;100.00;99783.81;5019483;28;20080;-74
2024/01/23 02:35:45;;;;;;;35.50;5.43;;;;;;;6.01;100.00;99906.00;5004847;28;20030;-74
2024/01/23 02:38:10;;;;;;;34.37;5.63;;;;;;;5.77;100.00;99972.00;5004442;28;20261;-74
2024/01/23 02:40:35;;;;;;;28.10;5.60;;;;;;;5.84;100.00;100042.75;5018111;28;20049;-74
2024/01/23 02:43:01;;;;;;;31.20;6.50;;;;;;;5.81;100.00;100029.00;5020772;28;20117;-74
2024/01/23 02:45:27;;;;;;;32.15;4.78;;;;;;;5.76;100.00;100031.22;5003355;28;20070;-74
2024/01/23 02:47:52;;;;;;;34.63;6.00;;;;;;;5.83;100.00;100051.69;5005815;28;20033;-74
2024/01/23 02:50:18;;;;;;;36.10;5.75;;;;;;;5.88;100.00;100027.41;4999681;28;20061;-74
2024/01/23 02:52:43;;;;;;;35.25;5.78;;;;;;;5.72;100.00;100028.91;5019008;28;20037;-74
2024/01/23 02:55:09;;;;;;;26.63;5.87;;;;;;;5.76;100.00;100052.44;5019189;28;20497;-74
2024/01/23 02:57:34;;;;;;;26.30;6.28;;;;;;;5.61;100.00;99999.13;5019215;28;20965;-74
2024/01/23 03:00:00;;;;;;;33.30;4.63;;;;;;;5.62;100.00;100011.38;5004833;28;20021;-74
2024/01/23 03:02:25;;;;;;;26.77;4.82;;;;;;;5.68;100.00;100024.88;5006037;28;20037;-74
2024/01/23 03:04:51;;;;;;;32.87;5.57;;;;;;;5.81;100.00;100048.38;5008264;28;20040;-74
2024/01/23 03:07:17;;;;;;;29.63;8.67;;;;;;;5.69;100.00;100036.31;5007394;28;20296;-74
2024/01/23 03:09:43;;;;;;;26.58;5.50;;;;;;;5.65;100.00;100070.19;5005782;28;20374;-74
2024/01/23 03:12:20;;;;;;;28.92;5.95;;;;;;;5.64;100.00;100112.72;5006355;28;20511;-74
2024/01/23 03:14:46;;;;;;;38.00;6.07;;;;;;;5.66;100.00;100161.06;5006397;28;20038;-74
2024/01/23 03:17:12;;;;;;;27.10;6.40;;;;;;;5.59;100.00;100149.38;5022061;28;20026;-74
2024/01/23 03:19:39;;;;;;;44.88;6.28;;;;;;;5.64;100.00;100153.28;5004272;28;20042;-74
2024/01/23 03:22:05;;;;;;;35.88;5.13;;;;;;;5.39;100.00;100107.09;5002001;28;20033;-74
2024/01/23 03:24:31;;;;;;;29.17;5.22;;;;;;;5.53;100.00;100128.81;5005719;28;20033;-74
2024/01/23 03:26:57;;;;;;;32.33;6.72;;;;;;;5.44;100.00;100094.25;5022085;28;20045;-74
2024/01/23 03:29:24;;;;;;;31.50;5.90;;;;;;;5.43;100.00;100124.38;5022305;28;20026;-74
2024/01/23 03:31:49;;;;;;;31.55;7.55;;;;;;;5.55;100.00;100154.16;5004301;28;20296;-74
2024/01/23 03:34:15;;;;;;;32.90;5.97;;;;;;;5.59;100.00;100162.63;4995776;28;20417;-74
2024/01/23 03:36:40;;;;;;;23.10;6.15;;;;;;;5.50;100.00;100138.69;5005441;28;20393;-74
2024/01/23 03:39:06;;;;;;;38.67;8.70;;;;;;;5.49;100.00;100144.97;5006152;28;20026;-74
2024/01/23 03:41:31;;;;;;;29.47;5.97;;;;;;;5.59;100.00;100123.72;4999405;28;20505;-75
2024/01/23 03:43:56;;;;;;;28.00;5.40;;;;;;;5.54;100.00;100111.91;5003561;28;20385;-74
2024/01/23 03:46:22;;;;;;;30.57;4.93;;;;;;;5.65;100.00;100114.38;5015922;28;20372;-74
2024/01/23 03:48:47;;;;;;;33.77;6.90;;;;;;;5.53;100.00;100094.38;5002557;28;20057;-74
2024/01/23 03:51:12;;;;;;;41.83;8.27;;;;;;;5.44;100.00;100110.13;5002019;28;20106;-74
2024/01/23 03:53:38;;;;;;;29.58;6.72;;;;;;;5.47;100.00;100131.03;5004953;28;20117;-74
2024/01/23 03:56:04;;;;;;;29.00;7.77;;;;;;;5.55;100.00;100155.94;5006010;28;20036;-74
2024/01/23 03:58:29;;;;;;;32.42;5.43;;;;;;;5.38;100.00;100131.88;5019792;28;20128;-74
2024/01/23 04:00:57;;;;;;;24.95;7.20;;;;;;;5.54;100.00;100170.19;5020431;28;20037;-75
2024/01/23 04:03:23;;;;;;;36.42;6.18;;;;;;;5.48;100.00;100164.47;5005296;28;20057;-74
2024/01/23 04:05:48;;;;;;;30.13;7.07;;;;;;;5.46;100.00;100182.31;5020781;28;20393;-75
2024/01/23 04:08:13;;;;;;;33.30;8.00;;;;;;;5.40;100.00;100193.47;5020972;28;20061;-75
2024/01/23 04:10:39;;;;;;;29.53;6.60;;;;;;;5.49;100.00;100205.03;4997730;28;20038;-74
2024/01/23 04:13:04;;;;;;;34.23;6.00;;;;;;;5.35;100.00;100185.13;5005845;28;20124;-75
2024/01/23 04:15:29;;;;;;;38.27;5.60;;;;;;;5.44;100.00;100173.69;5019422;28;20287;-75
2024/01/23 04:17:56;;;;;;;38.53;7.77;;;;;;;5.53;100.00;100177.28;4998708;28;20465;-75
2024/01/23 04:20:21;;;;;;;47.42;5.75;;;;;;;5.57;100.00;100172.53;5003917;28;20608;-74
2024/01/23 04:22:47;;;;;;;40.58;8.15;;;;;;;5.59;100.00;100141.44;5003389;28;20094;-75
2024/01/23 04:25:12;;;;;;;40.13;7.25;;;;;;;5.64;100.00;100126.81;5005325;28;20635;-75
2024/01/23 04:27:38;;;;;;;33.37;8.27;;;;;;;5.61;100.00;100103.25;5019203;28;20084;-74
2024/01/23 04:30:03;;;;;;;45.25;6.80;;;;;;;5.60;100.00;100120.13;5004063;28;20044;-75
2024/01/23 04:32:29;;;;;;;33.55;5.75;;;;;;;5.59;100.00;100107.00;5011926;28;20026;-74
2024/01/23 04:34:54;;;;;;;41.87;7.13;;;;;;;5.54;100.00;100119.88;5004885;28;20080;-74
2024/01/23 04:37:19;;;;;;;34.77;6.60;;;;;;;5.44;100.00;100136.63;5003840;28;20398;-75
2024/01/23 04:39:45;;;;;;;31.57;6.67;;;;;;;5.35;100.00;100165.78;5004251;28;20074;-75
2024/01/23 04:42:10;;;;;;;39.37;5.40;;;;;;;5.31;100.00;100219.97;5021272;28;20037;-75
2024/01/23 04:44:35;;;;;;;41.50;9.13;;;;;;;5.25;100.00;100263.72;5019681;28;20836;-75
2024/01/23 04:47:01;;;;;;;40.27;7.93;;;;;;;5.17;100.00;100288.22;5004998;28;20104;-75
2024/01/23 04:49:26;;;;;;;28.77;6.40;;;;;;;5.08;100.00;100316.38;5002093;28;20150;-76
2024/01/23 04:51:51;;;;;;;37.70;5.47;;;;;;;5.15;100.00;100344.91;5006676;28;20031;-77
2024/01/23 04:54:17;;;;;;;40.20;6.53;;;;;;;5.12;100.00;100350.47;5006015;28;20034;-76
2024/01/23 04:56:42;;;;;;;27.03;5.30;;;;;;;5.05;100.00;100358.13;5003442;28;20026;-76
2024/01/23 04:59:08;;;;;;;33.93;5.77;;;;;;;5.14;100.00;100377.66;5002757;28;20292;-76
2024/01/23 05:01:33;;;;;;;27.55;6.53;;;;;;;4.97;100.00;100374.69;5018280;28;20100;-76
2024/01/23 05:03:58;;;;;;;41.60;5.27;;;;;;;5.09;100.00;100401.88;5019750;28;20021;-75
2024/01/23 05:06:24;;;;;;;29.93;8.07;;;;;;;4.97;100.00;100387.91;5003753;28;20033;-75
2024/01/23 05:08:49;;;;;;;40.90;5.87;;;;;;;5.03;100.00;100392.69;5002565;28;20096;-76
2024/01/23 05:11:14;;;;;;;42.07;7.53;;;;;;;4.99;100.00;100407.13;5001432;28;20289;-76
2024/01/23 05:13:43;;;;;;;37.90;5.27;;;;;;;4.84;100.00;100366.16;5009390;28;20296;-75
2024/01/23 05:16:08;;;;;;;46.53;9.05;;;;;;;4.99;100.00;100409.78;5015571;28;20516;-75
2024/01/23 05:18:34;;;;;;;36.70;6.10;;;;;;;4.94;100.00;100403.22;5013291;28;20040;-76
2024/01/23 05:20:59;;;;;;;49.67;8.20;;;;;;;5.04;100.00;100396.97;5000757;28;20044;-75
2024/01/23 05:23:26;;;;;;;41.27;8.53;;;;;;;5.17;100.00;100414.41;4998075;28;20088;-75
2024/01/23 05:25:51;;;;;;;58.63;9.30;;;;;;;5.11;100.00;100414.97;5003568;28;20033;-76
2024/01/23 05:28:16;;;;;;;33.25;5.25;;;;;;;5.13;100.00;100392.69;5003911;28;20060;-76
2024/01/23 05:30:42;;;;;;;35.55;6.40;;;;;;;5.05;100.00;100389.88;5002219;28;20409;-76
2024/01/23 05:33:07;;;;;;;26.10;6.53;;;;;;;5.14;100.00;100404.13;5019050;28;20025;-75
2024/01/23 05:35:33;;;;;;;36.40;5.93;;;;;;;5.13;100.00;100403.28;5009404;28;20037;-75
2024/01/23 05:37:59;;;;;;;;;;;;;;;5.28;100.00;100414.31;5012460;28;20501;-75
2024/01/23 05:40:24;;;;;;;43.72;6.25;;;;;;;5.29;100.00;100410.69;5003922;28;19920;-75
2024/01/23 05:42:50;;;;;;;43.20;6.38;;;;;;;5.23;100.00;100401.47;5004667;28;20496;-75
2024/01/23 05:45:15;;;;;;;50.57;8.20;;;;;;;5.19;100.00;100392.13;5004710;28;20567;-75
2024/01/23 05:47:40;;;;;;;55.08;9.10;;;;;;;5.28;100.00;100425.72;5021032;28;20555;-75
2024/01/23 05:50:06;;;;;;;48.20;9.93;;;;;;;5.24;100.00;100434.06;5021528;28;20033;-75
2024/01/23 05:52:32;;;;;;;44.85;9.80;;;;;;;5.27;100.00;100434.66;5012661;28;20034;-75
2024/01/23 05:54:59;;;;;;;45.63;7.97;;;;;;;5.23;100.00;100429.75;4998600;28;20382;-75
2024/01/23 05:57:25;;;;;;;45.08;7.13;;;;;;;5.32;100.00;100412.25;5017964;28;20045;-75
2024/01/23 05:59:50;;;;;;;35.97;5.88;;;;;;;5.26;100.00;100418.91;5021001;28;20125;-76
2024/01/23 06:02:15;;;;;;;53.93;8.27;;;;;;;5.32;100.00;100442.19;4987890;28;20121;-76
2024/01/23 06:04:42;;;;;;;43.67;5.93;;;;;;;5.34;100.00;100469.38;5001207;28;20277;-76
2024/01/23 06:07:07;;;;;;;50.38;8.93;;;;;;;5.28;100.00;100469.91;5020937;28;20041;-76
2024/01/23 06:09:33;;;;;;;47.67;7.40;;;;;;;5.24;100.00;100484.38;5015902;28;20028;-75
2024/01/23 06:11:58;;;;;;;52.72;7.85;;;;;;;5.37;100.00;100505.31;5005636;28;20293;-75
2024/01/23 06:14:24;;;;;;;53.08;12.02;;;;;;;5.32;100.00;100487.19;4996855;28;20030;-75
2024/01/23 06:16:50;;;;;;;50.05;9.38;;;;;;;5.37;100.00;100500.84;5000144;28;20069;-76
2024/01/23 06:19:15;;;;;;;49.63;9.23;;;;;;;5.31;100.00;100511.97;5021217;28;20065;-77
2024/01/23 06:21:40;;;;;;;49.17;9.43;;;;;;;5.31;100.00;100511.97;5020982;28;20041;-77
2024/01/23 06:24:06;;;;;;;42.83;8.07;;;;;;;5.34;100.00;100543.50;5021831;28;20312;-78
2024/01/23 06:26:34;;;;;;;51.20;8.07;;;;;;;5.34;100.00;100535.56;5008643;28;20040;-79
2024/01/23 06:29:01;;;;;;;46.30;9.95;;;;;;;5.30;100.00;100542.06;5025400;28;20064;-77
2024/01/23 06:31:27;;;;;;;37.10;8.13;;;;;;;5.21;100.00;100527.81;5010095;28;20026;-77
2024/01/23 06:33:53;;;;;;;50.95;8.00;;;;;;;5.37;100.00;100547.69;5024845;28;20030;-77
2024/01/23 06:36:18;;;;;;;51.88;8.65;;;;;;;5.31;100.00;100561.44;5008790;28;20120;-78
2024/01/23 06:38:44;;;;;;;58.67;9.63;;;;;;;5.32;100.00;100561.31;5019427;28;20473;-77
2024/01/23 06:41:09;;;;;;;74.43;10.15;;;;;;;5.45;100.00;100571.66;5018515;28;20050;-77
2024/01/23 06:43:35;;;;;;;56.35;10.18;;;;;;;5.40;100.00;100574.72;5024975;28;20084;-77
2024/01/23 06:46:02;;;;;;;46.13;9.70;;;;;;;5.39;100.00;100577.50;5025316;28;20044;-77
2024/01/23 06:48:27;;;;;;;60.90;10.27;;;;;;;5.36;100.00;100565.38;5000899;28;20401;-78
2024/01/23 06:50:53;;;;;;;47.10;8.80;;;;;;;5.55;100.00;100582.28;4992580;28;20017;-77
2024/01/23 06:53:18;;;;;;;63.00;10.03;;;;;;;5.40;100.00;100564.13;5011248;28;20074;-78
2024/01/23 06:55:44;;;;;;;44.20;8.70;;;;;;;5.44;100.00;100573.47;5007861;28;20091;-77
2024/01/23 06:58:09;;;;;;;44.80;9.70;;;;;;;5.40;100.00;100579.19;5017706;28;20311;-77
2024/01/23 07:00:34;;;;;;;62.97;11.27;;;;;;;5.50;100.00;100586.19;4997606;28;20034;-77
2024/01/23 07:03:00;;;;;;;53.43;8.50;;;;;;;5.47;100.00;100594.38;4993394;28;20034;-78
2024/01/23 07:05:25;;;;;;;46.57;8.73;;;;;;;5.38;100.00;100589.06;5006035;28;21041;-77
2024/01/23 07:07:50;;;;;;;47.67;9.17;;;;;;;5.36;100.00;100575.97;5001478;28;20048;-78
2024/01/23 07:10:16;;;;;;;45.73;8.83;;;;;;;5.40;100.00;100605.66;5017551;28;20261;-77
2024/01/23 07:12:41;;;;;;;46.40;8.05;;;;;;;5.35;100.00;100606.03;4997103;28;20386;-77
2024/01/23 07:15:07;;;;;;;32.93;6.97;;;;;;;5.53;100.00;100623.97;4980229;28;20621;-77
2024/01/23 07:17:32;;;;;;;43.97;7.78;;;;;;;5.48;100.00;100598.72;5004321;28;20392;-77
2024/01/23 07:19:58;;;;;;;37.03;9.50;;;;;;;5.52;100.00;100603.75;5005661;28;20030;-77
2024/01/23 07:22:24;;;;;;;46.33;7.32;;;;;;;5.57;100.00;100620.06;5007975;28;20041;-77
2024/01/23 07:24:49;;;;;;;41.58;6.53;;;;;;;5.68;100.00;100622.63;5008682;28;20030;-77
2024/01/23 07:27:15;;;;;;;52.00;9.05;;;;;;;5.65;100.00;100617.63;5004148;28;20636;-77
2024/01/23 07:29:40;;;;;;;45.90;7.07;;;;;;;5.64;100.00;100619.44;5022220;28;20026;-76
2024/01/23 07:32:06;;;;;;;44.97;7.67;;;;;;;5.78;100.00;100631.44;5002355;28;20384;-77
2024/01/23 07:34:32;;;;;;;42.08;8.05;;;;;;;5.70;100.00;100632.13;5016632;28;20073;-77
2024/01/23 07:36:57;;;;;;;43.93;9.67;;;;;;;5.79;100.00;100635.78;4999096;28;20075;-77
2024/01/23 07:39:23;;;;;;;43.03;8.43;;;;;;;5.87;100.00;100633.28;5017704;28;20862;-77
2024/01/23 07:41:48;;;;;;;50.75;8.18;;;;;;;5.97;100.00;100638.66;5015694;28;20117;-78
2024/01/23 07:44:14;;;;;;;50.50;7.60;;;;;;;5.96;100.00;100647.56;4984544;28;20022;-79
2024/01/23 07:46:39;;;;;;;59.22;12.32;;;;;;;5.86;100.00;100626.31;5000903;28;20342;-77
2024/01/23 07:49:05;;;;;;;41.17;7.90;;;;;;;5.93;100.00;100632.75;5007687;28;20037;-78
2024/01/23 07:51:44;;;;;;;36.93;9.23;;;;;;;5.86;100.00;100631.63;5016394;28;20042;-77
2024/01/23 07:54:09;;;;;;;47.08;8.73;;;;;;;5.94;100.00;100628.31;5016839;28;20516;-77
2024/01/23 07:56:35;;;;;;;45.43;8.03;;;;;;;6.01;100.00;100644.53;5002859;28;20034;-77
2024/01/23 07:59:00;;;;;;;48.37;10.00;;;;;;;5.96;100.00;100633.50;5021984;28;20038;-77
2024/01/23 08:01:25;;;;;;;45.97;9.47;;;;;;;6.00;100.00;100626.97;5015848;28;20034;-75
2024/01/23 08:03:52;;;;;;;41.80;8.00;;;;;;;6.20;100.00;100625.16;5021126;28;20485;-76
2024/01/23 08:06:17;;;;;;;50.25;9.35;;;;;;;6.22;100.00;100617.91;5004531;28;20030;-75
2024/01/23 08:08:44;;;;;;;48.22;8.27;;;;;;;6.09;100.00;100620.84;5005405;28;20084;-76
2024/01/23 08:11:10;;;;;;;;;;;;;;;6.13;100.00;100628.38;5004877;28;20061;-77
2024/01/23 08:13:36;;;;;;;43.10;9.13;;;;;;;6.16;100.00;100640.53;5023720;28;19972;-75
2024/01/23 08:16:01;;;;;;;59.50;11.77;;;;;;;6.24;100.00;100637.19;5023686;28;20034;-75
2024/01/23 08:18:26;;;;;;;49.83;7.88;;;;;;;6.24;100.00;100637.19;5008928;28;20021;-75
2024/01/23 08:20:52;;;;;;;49.53;8.57;;;;;;;6.19;100.00;100647.38;5023708;28;20041;-76
2024/01/23 08:23:17;;;;;;;59.37;10.17;;;;;;;6.21;100.00;100626.88;5023641;28;20034;-76
2024/01/23 08:25:45;;;;;;;51.83;8.97;;;;;;;6.26;100.00;100632.59;5023509;28;20116;-76
2024/01/23 08:28:10;;;;;;;45.50;10.10;;;;;;;6.10;100.00;100628.63;5023304;28;20033;-75
2024/01/23 08:30:35;;;;;;;45.10;10.10;;;;;;;6.21;100.00;100629.50;5008163;28;20038;-76
2024/01/23 08:33:02;;;;;;;42.13;9.03;;;;;;;6.29;100.00;100646.38;5004785;28;20037;-75
2024/01/23 08:35:27;;;;;;;45.25;7.72;;;;;;;6.26;100.00;100627.28;5018268;28;20499;-75
2024/01/23 08:37:53;;;;;;;43.37;8.97;;;;;;;6.30;100.00;100642.78;5022130;28;20120;-75
2024/01/23 08:40:18;;;;;;;41.23;8.20;;;;;;;6.40;100.00;100641.97;5023270;28;20303;-75
2024/01/23 08:42:43;;;;;;;44.23;7.50;;;;;;;6.28;100.00;100638.59;5007728;28;20034;-74
2024/01/23 08:45:09;;;;;;;47.87;8.57;;;;;;;6.36;100.00;100632.59;5006476;28;20042;-75
2024/01/23 08:47:34;;;;;;;45.53;7.47;;;;;;;6.26;100.00;100617.50;5022664;28;20281;-75
2024/01/23 08:50:00;;;;;;;42.87;7.33;;;;;;;6.31;100.00;100633.84;5022740;28;20042;-75
2024/01/23 08:52:25;;;;;;;48.23;7.13;;;;;;;6.36;100.00;100651.16;5022847;28;20045;-75
2024/01/23 08:54:51;;;;;;;34.33;8.00;;;;;;;6.27;100.00;100645.69;5010303;28;20034;-75
2024/01/23 08:57:17;;;;;;;40.55;7.63;;;;;;;6.23;100.00;100636.34;5001352;28;20281;-75
2024/01/23 08:59:43;;;;;;;51.30;8.25;;;;;;;6.36;100.00;100670.56;5003735;28;20037;-75
2024/01/23 09:02:09;;;;;;;49.53;8.88;;;;;;;6.40;100.00;100671.13;5014136;28;20044;-75
2024/01/23 09:04:34;;;;;;;55.92;14.00;;;;;;;6.39;100.00;100672.94;5022131;28;20034;-75
2024/01/23 09:06:59;;;;;;;57.50;9.00;;;;;;;6.27;100.00;100680.16;4997988;28;20568;-75
2024/01/23 09:09:25;;;;;;;57.13;10.13;;;;;;;6.37;100.00;100701.41;5018299;28;20068;-75
2024/01/23 09:11:50;;;;;;;55.30;8.63;;;;;;;6.51;100.00;100698.38;5003917;28;20307;-75
2024/01/23 09:14:15;;;;;;;68.90;10.90;;;;;;;6.42;100.00;100682.44;4996287;28;20041;-75
2024/01/23 09:16:41;;;;;;;56.10;10.10;;;;;;;6.51;100.00;100695.72;5003380;28;20125;-75
2024/01/23 09:19:06;;;;;;;50.43;9.00;;;;;;;6.65;100.00;100705.09;5005606;28;20068;-75
2024/01/23 09:21:31;;;;;;;44.10;7.07;;;;;;;6.59;100.00;100673.78;5018481;28;20049;-75
2024/01/23 09:23:57;;;;;;;59.10;10.67;;;;;;;6.61;100.00;100682.47;5005577;28;20018;-75
2024/01/23 09:26:23;;;;;;;50.63;9.37;;;;;;;6.58;100.00;100672.13;5006963;28;20377;-75
2024/01/23 09:28:48;;;;;;;45.75;8.85;;;;;;;6.49;100.00;100681.75;5003819;28;20030;-75
2024/01/23 09:31:14;;;;;;;56.13;9.50;;;;;;;6.49;100.00;100655.22;5002386;28;20832;-75
2024/01/23 09:33:39;;;;;;;45.40;8.30;;;;;;;6.65;100.00;100656.47;4994723;28;20069;-75
2024/01/23 09:36:05;;;;;;;49.10;7.17;;;;;;;6.65;100.00;100664.44;4994849;28;20042;-74
2024/01/23 09:38:31;;;;;;;59.13;11.20;;;;;;;6.71;100.00;100679.81;5013600;28;20108;-75
2024/01/23 09:40:56;;;;;;;47.28;8.75;;;;;;;6.59;100.00;100662.34;4997347;28;20780;-75
2024/01/23 09:43:21;;;;;;;57.97;9.70;;;;;;;6.79;100.00;100695.88;4988535;28;20056;-75
2024/01/23 09:45:49;;;;;;;45.20;8.33;;;;;;;7.51;100.00;100728.22;5010097;28;20061;-75
2024/01/23 09:48:15;;;;;;;61.40;10.55;;;;;;;7.59;100.00;100624.75;4990935;28;20037;-75
2024/01/23 09:50:42;;;;;;;47.45;6.57;;;;;;;7.61;100.00;100620.94;5002690;28;20049;-74
2024/01/23 09:53:10;;;;;;;47.35;7.82;;;;;;;7.41;100.00;100531.69;5021888;28;20032;-75
2024/01/23 09:55:35;;;;;;;45.45;9.52;;;;;;;7.83;100.00;100550.63;4997290;28;20037;-75
2024/01/23 09:58:02;;;;;;;47.53;9.95;;;;;;;8.03;100.00;100458.28;4976755;28;20501;-75
2024/01/23 10:00:28;;;;;;;47.63;8.13;;;;;;;7.90;100.00;100409.97;4993771;28;20058;-74
2024/01/23 10:02:54;;;;;;;54.97;9.57;;;;;;;8.00;100.00;100444.44;5012369;28;20123;-75
2024/01/23 10:05:21;;;;;;;41.50;8.05;;;;;;;7.77;100.00;100420.16;4999070;28;20467;-75
2024/01/23 10:07:47;;;;;;;53.30;7.38;;;;;;;7.46;100.00;100436.47;4998890;28;20042;-75
2024/01/23 10:10:16;;;;;;;51.55;9.13;;;;;;;7.26;100.00;100454.34;4998423;28;20057;-75
2024/01/23 10:12:46;;;;;;;50.47;7.43;;;;;;;7.40;100.00;100517.59;5021565;28;20037;-75
2024/01/23 10:15:14;;;;;;;50.10;8.52;;;;;;;7.31;100.00;100522.94;5012487;28;20076;-75
2024/01/23 10:17:39;;;;;;;53.25;11.00;;;;;;;7.28;100.00;100558.59;5001866;28;20096;-75
2024/01/23 10:20:08;;;;;;;50.05;8.82;;;;;;;7.15;100.00;100590.78;4998146;28;20524;-75
2024/01/23 10:22:34;;;;;;;48.60;9.65;;;;;;;7.05;100.00;100605.91;4989945;28;20512;-75
2024/01/23 10:24:59;;;;;;;55.03;9.85;;;;;;;7.09;100.00;100638.28;4989375;28;20059;-75
2024/01/23 10:27:29;;;;;;;57.15;11.40;;;;;;;7.08;100.00;100657.88;5010892;28;20042;-75
2024/01/23 10:29:55;;;;;;;42.53;9.80;;;;;;;7.27;100.00;100670.28;5004123;28;20034;-75
2024/01/23 10:32:23;;;;;;;60.87;10.67;;;;;;;7.22;100.00;100673.34;4997544;28;20488;-75
2024/01/23 10:34:54;;;;;;;38.08;7.47;;;;;;;7.15;100.00;100674.91;5005729;28;20508;-75
2024/01/23 10:37:21;;;;;;;41.55;9.23;;;;;;;7.13;100.00;100690.97;5003023;28;20564;-75
2024/01/23 10:39:48;;;;;;;59.33;10.15;;;;;;;7.65;100.00;100753.50;4990220;28;20038;-75
2024/01/23 10:42:16;;;;;;;52.55;8.35;;;;;;;7.94;100.00;100719.72;4994231;28;20173;-75
2024/01/23 10:44:42;;;;;;;51.72;8.90;;;;;;;8.19;100.00;100597.69;5001557;28;20055;-76
2024/01/23 10:47:08;;;;;;;45.22;10.32;;;;;;;8.35;100.00;100504.75;5005704;28;20101;-75
2024/01/23 10:49:33;;;;;;;49.40;8.65;;;;;;;7.95;100.00;100382.94;4998384;28;20173;-74
2024/01/23 10:52:03;;;;;;;50.63;10.40;;;;;;;7.66;100.00;100412.44;5016206;28;20030;-75
2024/01/23 10:54:31;;;;;;;36.17;7.38;;;;;;;7.46;100.00;100399.28;5000097;28;20038;-75
2024/01/23 10:56:59;;;;;;;42.05;6.95;;;;;;;7.56;100.00;100455.84;5005578;28;20059;-75
2024/01/23 10:59:27;;;;;;;41.38;6.80;;;;;;;7.44;100.00;100457.00;5021054;28;20040;-75
2024/01/23 11:01:58;;;;;;;51.42;6.82;;;;;;;8.22;100.00;100584.09;5005519;28;20092;-74
2024/01/23 11:04:23;;;;;;;45.65;7.90;;;;;;;8.34;100.00;100452.53;5020557;28;20378;-75
2024/01/23 11:07:00;;;;;;;62.33;9.70;;;;;;;7.83;100.00;100318.56;5016534;28;20041;-74
2024/01/23 11:09:39;;;;;;;;;;;;;;;7.75;100.00;100363.66;5022067;28;20038;-74
2024/01/23 11:12:17;;;;;;;38.10;9.88;;;;;;;8.07;100.00;100450.00;5004862;28;20015;-74